sensor_id;sensor_type;location;lat;lon;timestamp;temperature;humidity
32322;DHT22;61553;48.994;8.940;2024-01-06T00:01:23;2.50;99.90
32322;DHT22;61553;48.994;8.940;2024-01-06T00:03:49;2.60;99.90
32322;DHT22;61553;48.994;8.940;2024-01-06T00:06:14;2.50;99.90
32322;DHT22;61553;48.994;8.940;2024-01-06T00:08:40;2.60;99.90
32322;DHT22;61553;48.994;8.940;2024-01-06T00:11:06;2.50;99.90
32322;DHT22;61553;48.994;8.940;2024-01-06T00:13:31;2.60;99.90
32322;DHT22;61553;48.994;8.940;2024-01-06T00:15:57;2.60;99.90
32322;DHT22;61553;48.994;8.940;2024-01-06T00:18:22;2.50;99.90
32322;DHT22;61553;48.994;8.940;2024-01-06T00:20:48;2.60;99.90
32322;DHT22;61553;48.994;8.940;2024-01-06T00:23:14;2.70;99.90
32322;DHT22;61553;48.994;8.940;2024-01-06T00:25:39;2.70;99.90
32322;DHT22;61553;48.994;8.940;2024-01-06T00:28:05;2.60;99.90
32322;DHT22;61553;48.994;8.940;2024-01-06T00:30:31;2.60;99.90
32322;DHT22;61553;48.994;8.940;2024-01-06T00:32:56;2.50;99.90
32322;DHT22;61553;48.994;8.940;2024-01-06T00:35:22;2.60;99.90
32322;DHT22;61553;48.994;8.940;2024-01-06T00:37:47;2.70;99.90
32322;DHT22;61553;48.994;8.940;2024-01-06T00:40:13;2.90;99.90
32322;DHT22;61553;48.994;8.940;2024-01-06T00:42:39;2.70;99.90
32322;DHT22;61553;48.994;8.940;2024-01-06T00:45:04;2.60;99.90
32322;DHT22;61553;48.994;8.940;2024-01-06T00:47:31;2.80;99.90
32322;DHT22;61553;48.994;8.940;2024-01-06T00:49:56;2.90;99.90
32322;DHT22;61553;48.994;8.940;2024-01-06T00:52:22;2.80;99.90
32322;DHT22;61553;48.994;8.940;2024-01-06T00:54:48;2.80;99.90
32322;DHT22;61553;48.994;8.940;2024-01-06T00:57:13;2.80;99.90
32322;DHT22;61553;48.994;8.940;2024-01-06T00:59:39;2.80;99.90
32322;DHT22;61553;48.994;8.940;2024-01-06T01:02:04;2.80;99.90
32322;DHT22;61553;48.994;8.940;2024-01-06T01:04:30;2.80;99.90
32322;DHT22;61553;48.994;8.940;2024-01-06T01:06:56;2.80;99.90
32322;DHT22;61553;48.994;8.940;2024-01-06T01:09:21;2.80;99.90
32322;DHT22;61553;48.994;8.940;2024-01-06T01:11:47;2.80;99.90
32322;DHT22;61553;48.994;8.940;2024-01-06T01:14:12;2.70;99.90
32322;DHT22;61553;48.994;8.940;2024-01-06T01:16:38;2.80;99.90
32322;DHT22;61553;48.994;8.940;2024-01-06T01:19:04;2.80;99.90
32322;DHT22;61553;48.994;8.940;2024-01-06T01:21:29;2.90;99.90
32322;DHT22;61553;48.994;8.940;2024-01-06T01:23:55;3.00;99.90
32322;DHT22;61553;48.994;8.940;2024-01-06T01:26:21;2.80;99.90
32322;DHT22;61553;48.994;8.940;2024-01-06T01:28:46;2.90;99.90
32322;DHT22;61553;48.994;8.940;2024-01-06T01:31:12;2.80;99.90
32322;DHT22;61553;48.994;8.940;2024-01-06T01:33:38;2.90;99.90
32322;DHT22;61553;48.994;8.940;2024-01-06T01:36:04;2.90;99.90
32322;DHT22;61553;48.994;8.940;2024-01-06T01:38:30;2.90;99.90
32322;DHT22;61553;48.994;8.940;2024-01-06T01:40:55;2.90;99.90
32322;DHT22;61553;48.994;8.940;2024-01-06T01:43:21;2.90;99.90
32322;DHT22;61553;48.994;8.940;2024-01-06T01:45:50;2.90;99.90
32322;DHT22;61553;48.994;8.940;2024-01-06T01:48:22;2.90;99.90
32322;DHT22;61553;48.994;8.940;2024-01-06T01:50:48;2.90;99.90
32322;DHT22;61553;48.994;8.940;2024-01-06T01:53:14;2.90;99.90
32322;DHT22;61553;48.994;8.940;2024-01-06T01:55:41;2.90;99.90
32322;DHT22;61553;48.994;8.940;2024-01-06T01:58:08;3.00;99.90
32322;DHT22;61553;48.994;8.940;2024-01-06T02:00:34;2.90;99.90
32322;DHT22;61553;48.994;8.940;2024-01-06T02:03:01;2.90;99.90
32322;DHT22;61553;48.994;8.940;2024-01-06T02:05:28;2.90;99.90
32322;DHT22;61553;48.994;8.940;2024-01-06T02:07:54;3.00;99.90
32322;DHT22;61553;48.994;8.940;2024-01-06T02:10:19;3.00;99.90
32322;DHT22;61553;48.994;8.940;2024-01-06T02:12:45;2.90;99.90
32322;DHT22;61553;48.994;8.940;2024-01-06T02:15:11;2.90;99.90
32322;DHT22;61553;48.994;8.940;2024-01-06T02:17:36;2.90;99.90
32322;DHT22;61553;48.994;8.940;2024-01-06T02:20:02;3.00;99.90
32322;DHT22;61553;48.994;8.940;2024-01-06T02:22:27;3.00;99.90
32322;DHT22;61553;48.994;8.940;2024-01-06T02:24:53;3.00;99.90
32322;DHT22;61553;48.994;8.940;2024-01-06T02:27:19;3.00;99.90
32322;DHT22;61553;48.994;8.940;2024-01-06T02:29:45;3.00;99.90
32322;DHT22;61553;48.994;8.940;2024-01-06T02:32:10;3.00;99.90
32322;DHT22;61553;48.994;8.940;2024-01-06T02:34:36;3.10;99.90
32322;DHT22;61553;48.994;8.940;2024-01-06T02:37:03;3.10;99.90
32322;DHT22;61553;48.994;8.940;2024-01-06T02:39:29;3.20;99.90
32322;DHT22;61553;48.994;8.940;2024-01-06T02:41:54;3.20;99.90
32322;DHT22;61553;48.994;8.940;2024-01-06T02:44:20;3.20;99.90
32322;DHT22;61553;48.994;8.940;2024-01-06T02:46:46;3.30;99.90
32322;DHT22;61553;48.994;8.940;2024-01-06T02:49:11;3.20;99.90
32322;DHT22;61553;48.994;8.940;2024-01-06T02:51:37;3.10;99.90
32322;DHT22;61553;48.994;8.940;2024-01-06T02:54:02;3.10;99.90
32322;DHT22;61553;48.994;8.940;2024-01-06T02:56:29;3.00;99.90
32322;DHT22;61553;48.994;8.940;2024-01-06T02:58:54;3.00;99.90
32322;DHT22;61553;48.994;8.940;2024-01-06T03:01:20;3.10;99.90
32322;DHT22;61553;48.994;8.940;2024-01-06T03:03:46;3.10;99.90
32322;DHT22;61553;48.994;8.940;2024-01-06T03:06:11;3.00;99.90
32322;DHT22;61553;48.994;8.940;2024-01-06T03:08:37;2.90;99.90
32322;DHT22;61553;48.994;8.940;2024-01-06T03:11:03;3.10;99.90
32322;DHT22;61553;48.994;8.940;2024-01-06T03:13:30;3.10;99.90
32322;DHT22;61553;48.994;8.940;2024-01-06T03:15:56;3.20;99.90
32322;DHT22;61553;48.994;8.940;2024-01-06T03:18:21;3.10;99.90
32322;DHT22;61553;48.994;8.940;2024-01-06T03:20:47;3.20;99.90
32322;DHT22;61553;48.994;8.940;2024-01-06T03:23:13;3.20;99.90
32322;DHT22;61553;48.994;8.940;2024-01-06T03:25:38;3.30;99.90
32322;DHT22;61553;48.994;8.940;2024-01-06T03:28:04;3.40;99.90
32322;DHT22;61553;48.994;8.940;2024-01-06T03:30:29;3.40;99.90
32322;DHT22;61553;48.994;8.940;2024-01-06T03:32:55;3.40;99.90
32322;DHT22;61553;48.994;8.940;2024-01-06T03:35:21;3.50;99.90
32322;DHT22;61553;48.994;8.940;2024-01-06T03:37:46;3.60;99.90
32322;DHT22;61553;48.994;8.940;2024-01-06T03:40:12;3.60;99.90
32322;DHT22;61553;48.994;8.940;2024-01-06T03:42:38;3.70;99.90
32322;DHT22;61553;48.994;8.940;2024-01-06T03:45:04;3.70;99.90
32322;DHT22;61553;48.994;8.940;2024-01-06T03:47:29;3.80;99.90
32322;DHT22;61553;48.994;8.940;2024-01-06T03:49:55;3.90;99.90
32322;DHT22;61553;48.994;8.940;2024-01-06T03:52:20;4.00;99.90
32322;DHT22;61553;48.994;8.940;2024-01-06T03:54:46;3.90;99.90
32322;DHT22;61553;48.994;8.940;2024-01-06T03:57:12;3.80;99.90
32322;DHT22;61553;48.994;8.940;2024-01-06T03:59:37;3.80;99.90
32322;DHT22;61553;48.994;8.940;2024-01-06T04:02:03;3.70;99.90
32322;DHT22;61553;48.994;8.940;2024-01-06T04:04:28;3.60;99.90
32322;DHT22;61553;48.994;8.940;2024-01-06T04:06:54;3.60;99.90
32322;DHT22;61553;48.994;8.940;2024-01-06T04:09:20;3.60;99.90
32322;DHT22;61553;48.994;8.940;2024-01-06T04:11:46;3.50;99.90
32322;DHT22;61553;48.994;8.940;2024-01-06T04:14:11;3.40;99.90
32322;DHT22;61553;48.994;8.940;2024-01-06T04:16:37;3.50;99.90
32322;DHT22;61553;48.994;8.940;2024-01-06T04:19:03;3.50;99.90
32322;DHT22;61553;48.994;8.940;2024-01-06T04:21:28;3.40;99.90
32322;DHT22;61553;48.994;8.940;2024-01-06T04:23:54;3.50;99.90
32322;DHT22;61553;48.994;8.940;2024-01-06T04:26:21;3.50;99.90
32322;DHT22;61553;48.994;8.940;2024-01-06T04:28:47;3.50;99.90
32322;DHT22;61553;48.994;8.940;2024-01-06T04:31:12;3.50;99.90
32322;DHT22;61553;48.994;8.940;2024-01-06T04:33:38;3.60;99.90
32322;DHT22;61553;48.994;8.940;2024-01-06T04:36:06;3.60;99.90
32322;DHT22;61553;48.994;8.940;2024-01-06T04:38:32;3.70;99.90
32322;DHT22;61553;48.994;8.940;2024-01-06T04:40:58;3.70;99.90
32322;DHT22;61553;48.994;8.940;2024-01-06T04:43:23;3.70;99.90
32322;DHT22;61553;48.994;8.940;2024-01-06T04:45:49;3.70;99.90
32322;DHT22;61553;48.994;8.940;2024-01-06T04:48:15;3.70;99.90
32322;DHT22;61553;48.994;8.940;2024-01-06T04:50:41;3.70;99.90
32322;DHT22;61553;48.994;8.940;2024-01-06T04:53:08;3.70;99.90
32322;DHT22;61553;48.994;8.940;2024-01-06T04:55:33;3.80;99.90
32322;DHT22;61553;48.994;8.940;2024-01-06T04:57:59;3.80;99.90
32322;DHT22;61553;48.994;8.940;2024-01-06T05:00:25;3.70;99.90
32322;DHT22;61553;48.994;8.940;2024-01-06T05:02:51;3.70;99.90
32322;DHT22;61553;48.994;8.940;2024-01-06T05:05:17;3.80;99.90
32322;DHT22;61553;48.994;8.940;2024-01-06T05:07:42;3.80;99.90
32322;DHT22;61553;48.994;8.940;2024-01-06T05:10:08;3.80;99.90
32322;DHT22;61553;48.994;8.940;2024-01-06T05:12:34;3.80;99.90
32322;DHT22;61553;48.994;8.940;2024-01-06T05:14:59;3.80;99.90
32322;DHT22;61553;48.994;8.940;2024-01-06T05:17:25;3.80;99.90
32322;DHT22;61553;48.994;8.940;2024-01-06T05:19:51;3.70;99.90
32322;DHT22;61553;48.994;8.940;2024-01-06T05:22:16;3.70;99.90
32322;DHT22;61553;48.994;8.940;2024-01-06T05:24:42;3.90;99.90
32322;DHT22;61553;48.994;8.940;2024-01-06T05:27:07;3.70;99.90
32322;DHT22;61553;48.994;8.940;2024-01-06T05:29:33;3.70;99.90
32322;DHT22;61553;48.994;8.940;2024-01-06T05:31:59;3.80;99.90
32322;DHT22;61553;48.994;8.940;2024-01-06T05:34:24;3.70;99.90
32322;DHT22;61553;48.994;8.940;2024-01-06T05:36:50;3.70;99.90
32322;DHT22;61553;48.994;8.940;2024-01-06T05:39:17;3.70;99.90
32322;DHT22;61553;48.994;8.940;2024-01-06T05:41:42;3.70;99.90
32322;DHT22;61553;48.994;8.940;2024-01-06T05:44:08;3.70;99.90
32322;DHT22;61553;48.994;8.940;2024-01-06T05:46:34;3.70;99.90
32322;DHT22;61553;48.994;8.940;2024-01-06T05:49:00;3.70;99.90
32322;DHT22;61553;48.994;8.940;2024-01-06T05:51:25;3.60;99.90
32322;DHT22;61553;48.994;8.940;2024-01-06T05:53:51;3.70;99.90
32322;DHT22;61553;48.994;8.940;2024-01-06T05:56:26;3.70;99.90
32322;DHT22;61553;48.994;8.940;2024-01-06T05:58:53;3.60;99.90
32322;DHT22;61553;48.994;8.940;2024-01-06T06:01:19;3.60;99.90
32322;DHT22;61553;48.994;8.940;2024-01-06T06:03:46;3.60;99.90
32322;DHT22;61553;48.994;8.940;2024-01-06T06:06:12;3.60;99.90
32322;DHT22;61553;48.994;8.940;2024-01-06T06:08:38;3.60;99.90
32322;DHT22;61553;48.994;8.940;2024-01-06T06:11:05;3.60;99.90
32322;DHT22;61553;48.994;8.940;2024-01-06T06:13:37;3.70;99.90
32322;DHT22;61553;48.994;8.940;2024-01-06T06:16:04;3.70;99.90
32322;DHT22;61553;48.994;8.940;2024-01-06T06:18:30;3.80;99.90
32322;DHT22;61553;48.994;8.940;2024-01-06T06:20:55;3.80;99.90
32322;DHT22;61553;48.994;8.940;2024-01-06T06:23:21;3.90;99.90
32322;DHT22;61553;48.994;8.940;2024-01-06T06:25:46;3.90;99.90
32322;DHT22;61553;48.994;8.940;2024-01-06T06:28:12;3.90;99.90
32322;DHT22;61553;48.994;8.940;2024-01-06T06:30:38;4.10;99.90
32322;DHT22;61553;48.994;8.940;2024-01-06T06:33:04;4.10;99.90
32322;DHT22;61553;48.994;8.940;2024-01-06T06:35:29;4.10;99.90
32322;DHT22;61553;48.994;8.940;2024-01-06T06:37:55;4.10;99.90
32322;DHT22;61553;48.994;8.940;2024-01-06T06:40:20;4.20;99.90
32322;DHT22;61553;48.994;8.940;2024-01-06T06:42:46;4.20;99.90
32322;DHT22;61553;48.994;8.940;2024-01-06T06:45:12;4.20;99.90
32322;DHT22;61553;48.994;8.940;2024-01-06T06:47:37;4.20;99.90
32322;DHT22;61553;48.994;8.940;2024-01-06T06:50:03;4.20;99.90
32322;DHT22;61553;48.994;8.940;2024-01-06T06:52:29;4.30;99.90
32322;DHT22;61553;48.994;8.940;2024-01-06T06:54:54;4.40;99.90
32322;DHT22;61553;48.994;8.940;2024-01-06T06:57:20;4.30;99.90
32322;DHT22;61553;48.994;8.940;2024-01-06T06:59:46;4.30;99.90
32322;DHT22;61553;48.994;8.940;2024-01-06T07:02:11;4.30;99.90
32322;DHT22;61553;48.994;8.940;2024-01-06T07:04:37;4.40;99.90
32322;DHT22;61553;48.994;8.940;2024-01-06T07:07:03;4.30;99.90
32322;DHT22;61553;48.994;8.940;2024-01-06T07:09:28;4.30;99.90
32322;DHT22;61553;48.994;8.940;2024-01-06T07:11:54;4.40;99.90
32322;DHT22;61553;48.994;8.940;2024-01-06T07:14:19;4.40;99.90
32322;DHT22;61553;48.994;8.940;2024-01-06T07:16:45;4.40;99.90
32322;DHT22;61553;48.994;8.940;2024-01-06T07:19:11;4.40;99.90
32322;DHT22;61553;48.994;8.940;2024-01-06T07:21:36;4.70;99.90
32322;DHT22;61553;48.994;8.940;2024-01-06T07:24:02;4.30;99.90
32322;DHT22;61553;48.994;8.940;2024-01-06T07:26:28;4.20;99.90
32322;DHT22;61553;48.994;8.940;2024-01-06T07:28:54;4.20;99.90
32322;DHT22;61553;48.994;8.940;2024-01-06T07:31:20;4.30;99.90
32322;DHT22;61553;48.994;8.940;2024-01-06T07:33:46;4.30;99.90
32322;DHT22;61553;48.994;8.940;2024-01-06T07:36:11;4.30;99.90
32322;DHT22;61553;48.994;8.940;2024-01-06T07:38:37;4.40;99.90
32322;DHT22;61553;48.994;8.940;2024-01-06T07:41:03;4.40;99.90
32322;DHT22;61553;48.994;8.940;2024-01-06T07:43:30;4.30;99.90
32322;DHT22;61553;48.994;8.940;2024-01-06T07:45:56;4.40;99.90
32322;DHT22;61553;48.994;8.940;2024-01-06T07:48:21;4.50;99.90
32322;DHT22;61553;48.994;8.940;2024-01-06T07:50:47;4.50;99.90
32322;DHT22;61553;48.994;8.940;2024-01-06T07:53:13;4.50;99.90
32322;DHT22;61553;48.994;8.940;2024-01-06T07:55:41;4.50;99.90
32322;DHT22;61553;48.994;8.940;2024-01-06T07:58:07;4.50;99.90
32322;DHT22;61553;48.994;8.940;2024-01-06T08:00:32;4.50;99.90
32322;DHT22;61553;48.994;8.940;2024-01-06T08:02:58;4.50;99.90
32322;DHT22;61553;48.994;8.940;2024-01-06T08:05:24;4.60;99.90
32322;DHT22;61553;48.994;8.940;2024-01-06T08:07:51;4.60;99.90
32322;DHT22;61553;48.994;8.940;2024-01-06T08:10:17;4.60;99.90
32322;DHT22;61553;48.994;8.940;2024-01-06T08:12:42;4.60;99.90
32322;DHT22;61553;48.994;8.940;2024-01-06T08:15:09;4.60;99.90
32322;DHT22;61553;48.994;8.940;2024-01-06T08:17:35;4.60;99.90
32322;DHT22;61553;48.994;8.940;2024-01-06T08:20:01;4.80;99.90
32322;DHT22;61553;48.994;8.940;2024-01-06T08:22:28;4.80;99.90
32322;DHT22;61553;48.994;8.940;2024-01-06T08:24:54;4.90;99.90
32322;DHT22;61553;48.994;8.940;2024-01-06T08:27:20;5.00;99.90
32322;DHT22;61553;48.994;8.940;2024-01-06T08:29:47;5.00;99.90
32322;DHT22;61553;48.994;8.940;2024-01-06T08:32:12;5.10;99.90
32322;DHT22;61553;48.994;8.940;2024-01-06T08:34:40;5.10;99.90
32322;DHT22;61553;48.994;8.940;2024-01-06T08:37:06;5.10;99.90
32322;DHT22;61553;48.994;8.940;2024-01-06T08:39:31;5.20;99.90
32322;DHT22;61553;48.994;8.940;2024-01-06T08:41:57;5.30;99.90
32322;DHT22;61553;48.994;8.940;2024-01-06T08:44:23;5.20;99.90
32322;DHT22;61553;48.994;8.940;2024-01-06T08:46:48;5.20;99.90
32322;DHT22;61553;48.994;8.940;2024-01-06T08:49:14;5.20;99.90
32322;DHT22;61553;48.994;8.940;2024-01-06T08:51:40;5.20;99.90
32322;DHT22;61553;48.994;8.940;2024-01-06T08:54:05;5.20;99.90
32322;DHT22;61553;48.994;8.940;2024-01-06T08:56:32;5.20;99.90
32322;DHT22;61553;48.994;8.940;2024-01-06T08:58:58;5.30;99.90
32322;DHT22;61553;48.994;8.940;2024-01-06T09:01:24;5.30;99.90
32322;DHT22;61553;48.994;8.940;2024-01-06T09:03:50;5.40;99.90
32322;DHT22;61553;48.994;8.940;2024-01-06T09:06:15;5.30;99.90
32322;DHT22;61553;48.994;8.940;2024-01-06T09:08:41;5.50;99.90
32322;DHT22;61553;48.994;8.940;2024-01-06T09:11:07;5.50;99.90
32322;DHT22;61553;48.994;8.940;2024-01-06T09:13:32;5.50;99.90
32322;DHT22;61553;48.994;8.940;2024-01-06T09:15:59;5.50;99.90
32322;DHT22;61553;48.994;8.940;2024-01-06T09:18:26;5.50;99.90
32322;DHT22;61553;48.994;8.940;2024-01-06T09:20:52;5.50;99.90
32322;DHT22;61553;48.994;8.940;2024-01-06T09:23:17;5.60;99.90
32322;DHT22;61553;48.994;8.940;2024-01-06T09:25:43;5.60;99.90
32322;DHT22;61553;48.994;8.940;2024-01-06T09:28:09;5.60;99.90
32322;DHT22;61553;48.994;8.940;2024-01-06T09:30:36;5.60;99.90
32322;DHT22;61553;48.994;8.940;2024-01-06T09:33:02;5.60;99.90
32322;DHT22;61553;48.994;8.940;2024-01-06T09:35:28;5.60;99.90
32322;DHT22;61553;48.994;8.940;2024-01-06T09:37:54;5.60;99.90
32322;DHT22;61553;48.994;8.940;2024-01-06T09:40:22;5.60;99.90
32322;DHT22;61553;48.994;8.940;2024-01-06T09:42:51;5.70;99.90
32322;DHT22;61553;48.994;8.940;2024-01-06T09:45:19;5.70;99.90
32322;DHT22;61553;48.994;8.940;2024-01-06T09:47:49;5.80;99.90
32322;DHT22;61553;48.994;8.940;2024-01-06T09:50:18;5.80;99.90
32322;DHT22;61553;48.994;8.940;2024-01-06T09:52:45;5.90;99.90
32322;DHT22;61553;48.994;8.940;2024-01-06T09:55:24;6.00;99.90
32322;DHT22;61553;48.994;8.940;2024-01-06T09:57:53;6.10;99.90
32322;DHT22;61553;48.994;8.940;2024-01-06T10:00:20;6.10;99.90
32322;DHT22;61553;48.994;8.940;2024-01-06T10:02:49;6.00;99.90
32322;DHT22;61553;48.994;8.940;2024-01-06T10:05:16;6.10;99.90
32322;DHT22;61553;48.994;8.940;2024-01-06T10:07:46;6.10;99.90
32322;DHT22;61553;48.994;8.940;2024-01-06T10:10:13;6.10;99.90
32322;DHT22;61553;48.994;8.940;2024-01-06T10:12:39;6.00;99.90
32322;DHT22;61553;48.994;8.940;2024-01-06T10:15:06;6.00;99.90
32322;DHT22;61553;48.994;8.940;2024-01-06T10:17:33;6.00;99.90
32322;DHT22;61553;48.994;8.940;2024-01-06T10:19:59;6.00;99.90
32322;DHT22;61553;48.994;8.940;2024-01-06T10:22:25;6.10;99.90
32322;DHT22;61553;48.994;8.940;2024-01-06T10:24:51;6.00;99.90
32322;DHT22;61553;48.994;8.940;2024-01-06T10:27:16;5.90;99.90
32322;DHT22;61553;48.994;8.940;2024-01-06T10:29:42;6.00;99.90
32322;DHT22;61553;48.994;8.940;2024-01-06T10:32:08;5.80;99.90
32322;DHT22;61553;48.994;8.940;2024-01-06T10:34:34;5.80;99.90
32322;DHT22;61553;48.994;8.940;2024-01-06T10:37:02;5.80;99.90
32322;DHT22;61553;48.994;8.940;2024-01-06T10:39:28;5.80;99.90
32322;DHT22;61553;48.994;8.940;2024-01-06T10:41:55;5.90;99.90
32322;DHT22;61553;48.994;8.940;2024-01-06T10:44:21;6.00;99.90
32322;DHT22;61553;48.994;8.940;2024-01-06T10:46:48;6.10;99.90
32322;DHT22;61553;48.994;8.940;2024-01-06T10:49:15;6.00;99.90
32322;DHT22;61553;48.994;8.940;2024-01-06T10:51:44;6.00;99.90
32322;DHT22;61553;48.994;8.940;2024-01-06T10:54:12;6.00;99.90
32322;DHT22;61553;48.994;8.940;2024-01-06T10:56:38;6.00;99.90
32322;DHT22;61553;48.994;8.940;2024-01-06T10:59:04;6.10;99.90
32322;DHT22;61553;48.994;8.940;2024-01-06T11:01:30;6.10;99.90
32322;DHT22;61553;48.994;8.940;2024-01-06T11:03:57;6.30;99.90
32322;DHT22;61553;48.994;8.940;2024-01-06T11:06:23;6.30;99.90
32322;DHT22;61553;48.994;8.940;2024-01-06T11:09:13;6.40;99.90
32322;DHT22;61553;48.994;8.940;2024-01-06T11:11:39;6.60;99.90
32322;DHT22;61553;48.994;8.940;2024-01-06T11:14:22;6.60;99.90
32322;DHT22;61553;48.994;8.940;2024-01-06T11:16:49;6.70;99.90
32322;DHT22;61553;48.994;8.940;2024-01-06T11:24:47;6.60;99.90
32322;DHT22;61553;48.994;8.940;2024-01-06T11:27:21;6.60;99.90
32322;DHT22;61553;48.994;8.940;2024-01-06T11:29:48;6.60;99.90
32322;DHT22;61553;48.994;8.940;2024-01-06T11:34:48;6.60;99.90
32322;DHT22;61553;48.994;8.940;2024-01-06T11:37:14;6.60;99.90
32322;DHT22;61553;48.994;8.940;2024-01-06T11:39:44;6.60;99.90
32322;DHT22;61553;48.994;8.940;2024-01-06T11:42:10;6.60;99.90
32322;DHT22;61553;48.994;8.940;2024-01-06T11:44:38;6.70;99.90
32322;DHT22;61553;48.994;8.940;2024-01-06T11:47:04;6.70;99.90
32322;DHT22;61553;48.994;8.940;2024-01-06T11:49:31;6.70;99.90
32322;DHT22;61553;48.994;8.940;2024-01-06T11:51:57;6.70;99.90
32322;DHT22;61553;48.994;8.940;2024-01-06T11:54:23;6.80;99.90
32322;DHT22;61553;48.994;8.940;2024-01-06T11:56:49;6.90;99.90
32322;DHT22;61553;48.994;8.940;2024-01-06T11:59:15;6.80;99.90
32322;DHT22;61553;48.994;8.940;2024-01-06T12:01:41;6.90;99.90
32322;DHT22;61553;48.994;8.940;2024-01-06T12:04:07;6.90;99.90
32322;DHT22;61553;48.994;8.940;2024-01-06T12:06:33;6.90;99.90
32322;DHT22;61553;48.994;8.940;2024-01-06T12:09:06;6.80;99.90
32322;DHT22;61553;48.994;8.940;2024-01-06T12:11:32;6.80;99.90
32322;DHT22;61553;48.994;8.940;2024-01-06T12:13:57;6.90;99.90
32322;DHT22;61553;48.994;8.940;2024-01-06T12:16:24;6.80;99.90
32322;DHT22;61553;48.994;8.940;2024-01-06T12:18:55;6.80;99.90
32322;DHT22;61553;48.994;8.940;2024-01-06T12:21:24;6.90;99.90
32322;DHT22;61553;48.994;8.940;2024-01-06T12:23:50;6.70;99.90
32322;DHT22;61553;48.994;8.940;2024-01-06T12:26:19;6.60;99.90
32322;DHT22;61553;48.994;8.940;2024-01-06T12:28:46;6.60;99.90
32322;DHT22;61553;48.994;8.940;2024-01-06T12:31:12;6.60;99.90
32322;DHT22;61553;48.994;8.940;2024-01-06T12:33:39;6.60;99.90
32322;DHT22;61553;48.994;8.940;2024-01-06T12:36:07;6.60;99.90
32322;DHT22;61553;48.994;8.940;2024-01-06T12:38:34;6.60;99.90
32322;DHT22;61553;48.994;8.940;2024-01-06T12:41:00;6.60;99.90
32322;DHT22;61553;48.994;8.940;2024-01-06T12:43:26;6.60;99.90
32322;DHT22;61553;48.994;8.940;2024-01-06T12:45:52;6.60;99.90
32322;DHT22;61553;48.994;8.940;2024-01-06T12:48:18;6.50;99.90
32322;DHT22;61553;48.994;8.940;2024-01-06T12:50:44;6.50;99.90
32322;DHT22;61553;48.994;8.940;2024-01-06T12:53:10;6.40;99.90
32322;DHT22;61553;48.994;8.940;2024-01-06T12:55:37;6.50;99.90
32322;DHT22;61553;48.994;8.940;2024-01-06T12:58:03;6.40;99.90
32322;DHT22;61553;48.994;8.940;2024-01-06T13:00:29;6.40;99.90
32322;DHT22;61553;48.994;8.940;2024-01-06T13:02:55;6.40;99.90
32322;DHT22;61553;48.994;8.940;2024-01-06T13:05:21;6.40;99.90
32322;DHT22;61553;48.994;8.940;2024-01-06T13:07:48;6.30;99.90
32322;DHT22;61553;48.994;8.940;2024-01-06T13:10:15;6.30;99.90
32322;DHT22;61553;48.994;8.940;2024-01-06T13:12:41;6.30;99.90
32322;DHT22;61553;48.994;8.940;2024-01-06T13:15:07;6.30;99.90
32322;DHT22;61553;48.994;8.940;2024-01-06T13:17:39;6.30;99.90
32322;DHT22;61553;48.994;8.940;2024-01-06T13:20:05;6.30;99.90
32322;DHT22;61553;48.994;8.940;2024-01-06T13:22:31;6.20;99.90
32322;DHT22;61553;48.994;8.940;2024-01-06T13:24:57;6.20;99.90
32322;DHT22;61553;48.994;8.940;2024-01-06T13:27:24;6.30;99.90
32322;DHT22;61553;48.994;8.940;2024-01-06T13:29:50;6.30;99.90
32322;DHT22;61553;48.994;8.940;2024-01-06T13:32:17;6.30;99.90
32322;DHT22;61553;48.994;8.940;2024-01-06T13:34:44;6.30;99.90
32322;DHT22;61553;48.994;8.940;2024-01-06T13:37:10;6.20;99.90
32322;DHT22;61553;48.994;8.940;2024-01-06T13:39:36;6.30;99.90
32322;DHT22;61553;48.994;8.940;2024-01-06T13:42:02;6.30;99.90
32322;DHT22;61553;48.994;8.940;2024-01-06T13:44:29;6.40;99.90
32322;DHT22;61553;48.994;8.940;2024-01-06T13:46:54;6.40;99.90
32322;DHT22;61553;48.994;8.940;2024-01-06T13:49:21;6.40;99.90
32322;DHT22;61553;48.994;8.940;2024-01-06T13:51:47;6.40;99.90
32322;DHT22;61553;48.994;8.940;2024-01-06T13:54:13;6.40;99.90
32322;DHT22;61553;48.994;8.940;2024-01-06T13:56:39;6.30;99.90
32322;DHT22;61553;48.994;8.940;2024-01-06T13:59:05;6.40;99.90
32322;DHT22;61553;48.994;8.940;2024-01-06T14:01:31;6.40;99.90
32322;DHT22;61553;48.994;8.940;2024-01-06T14:03:56;6.30;99.90
32322;DHT22;61553;48.994;8.940;2024-01-06T14:06:28;6.30;99.90
32322;DHT22;61553;48.994;8.940;2024-01-06T14:08:58;6.20;99.90
32322;DHT22;61553;48.994;8.940;2024-01-06T14:11:25;6.20;99.90
32322;DHT22;61553;48.994;8.940;2024-01-06T14:13:51;6.20;99.90
32322;DHT22;61553;48.994;8.940;2024-01-06T14:16:18;6.20;99.90
32322;DHT22;61553;48.994;8.940;2024-01-06T14:18:44;6.30;99.90
32322;DHT22;61553;48.994;8.940;2024-01-06T14:21:10;6.30;99.90
32322;DHT22;61553;48.994;8.940;2024-01-06T14:23:36;6.30;99.90
32322;DHT22;61553;48.994;8.940;2024-01-06T14:26:02;6.30;99.90
32322;DHT22;61553;48.994;8.940;2024-01-06T14:28:28;6.30;99.90
32322;DHT22;61553;48.994;8.940;2024-01-06T14:30:53;6.20;99.90
32322;DHT22;61553;48.994;8.940;2024-01-06T14:33:19;6.30;99.90
32322;DHT22;61553;48.994;8.940;2024-01-06T14:35:45;6.30;99.90
32322;DHT22;61553;48.994;8.940;2024-01-06T14:38:12;6.20;99.90
32322;DHT22;61553;48.994;8.940;2024-01-06T14:40:37;6.10;99.90
32322;DHT22;61553;48.994;8.940;2024-01-06T14:43:03;6.20;99.90
32322;DHT22;61553;48.994;8.940;2024-01-06T14:45:30;6.10;99.90
32322;DHT22;61553;48.994;8.940;2024-01-06T14:47:56;6.10;99.90
32322;DHT22;61553;48.994;8.940;2024-01-06T14:50:21;6.20;99.90
32322;DHT22;61553;48.994;8.940;2024-01-06T14:52:47;6.20;99.90
32322;DHT22;61553;48.994;8.940;2024-01-06T14:55:13;6.10;99.90
32322;DHT22;61553;48.994;8.940;2024-01-06T14:57:39;6.20;99.90
32322;DHT22;61553;48.994;8.940;2024-01-06T15:00:05;6.20;99.90
32322;DHT22;61553;48.994;8.940;2024-01-06T15:02:31;6.20;99.90
32322;DHT22;61553;48.994;8.940;2024-01-06T15:04:57;6.10;99.90
32322;DHT22;61553;48.994;8.940;2024-01-06T15:07:23;6.10;99.90
32322;DHT22;61553;48.994;8.940;2024-01-06T15:09:49;6.10;99.90
32322;DHT22;61553;48.994;8.940;2024-01-06T15:12:14;6.10;99.90
32322;DHT22;61553;48.994;8.940;2024-01-06T15:14:41;6.00;99.90
32322;DHT22;61553;48.994;8.940;2024-01-06T15:17:06;6.10;99.90
32322;DHT22;61553;48.994;8.940;2024-01-06T15:19:32;6.00;99.90
32322;DHT22;61553;48.994;8.940;2024-01-06T15:21:58;6.00;99.90
32322;DHT22;61553;48.994;8.940;2024-01-06T15:24:24;6.00;99.90
32322;DHT22;61553;48.994;8.940;2024-01-06T15:26:50;6.00;99.90
32322;DHT22;61553;48.994;8.940;2024-01-06T15:29:17;6.00;99.90
32322;DHT22;61553;48.994;8.940;2024-01-06T15:31:43;6.00;99.90
32322;DHT22;61553;48.994;8.940;2024-01-06T15:34:08;6.00;99.90
32322;DHT22;61553;48.994;8.940;2024-01-06T15:36:34;6.00;99.90
32322;DHT22;61553;48.994;8.940;2024-01-06T15:38:59;6.00;99.90
32322;DHT22;61553;48.994;8.940;2024-01-06T15:41:25;5.90;99.90
32322;DHT22;61553;48.994;8.940;2024-01-06T15:43:51;5.90;99.90
32322;DHT22;61553;48.994;8.940;2024-01-06T15:46:16;5.90;99.90